Time;durP1;ratioP1;P1;durP2;ratioP2;P2;SDS_P1;SDS_P2;PMS_P1;PMS_P2;Temp;Humidity;BMP_temperature;BMP_pressure;BME280_temperature;BME280_humidity;BME280_pressure;Samples;Min_cycle;Max_cycle;Signal;HPM_P1;HPM_P2
2021/06/09 00:00:54;;;;;;;20.55;16.25;;;18.50;99.90;;;;;;5009380;28;20049;-62
2021/06/09 00:03:21;;;;;;;22.80;15.88;;;18.50;99.90;;;;;;5009483;28;20053;-62
2021/06/09 00:05:50;;;;;;;20.67;16.05;;;18.50;99.90;;;;;;5009504;28;20136;-62
2021/06/09 00:08:18;;;;;;;20.55;15.88;;;18.50;99.90;;;;;;5009068;28;20049;-62
2021/06/09 00:10:45;;;;;;;22.52;16.15;;;18.50;99.90;;;;;;5008548;28;20065;-62
2021/06/09 00:13:12;;;;;;;21.38;15.77;;;18.50;99.90;;;;;;5010229;28;20053;-62
2021/06/09 00:15:38;;;;;;;22.10;15.80;;;18.50;99.90;;;;;;5009464;28;20119;-63
2021/06/09 00:18:05;;;;;;;21.50;15.68;;;18.50;99.90;;;;;;5009557;28;20076;-62
2021/06/09 00:20:31;;;;;;;20.13;15.52;;;18.50;99.90;;;;;;5008316;28;20489;-62
2021/06/09 00:22:59;;;;;;;22.67;17.00;;;18.50;99.90;;;;;;5010000;28;20395;-62
2021/06/09 00:25:26;;;;;;;21.95;17.55;;;18.50;99.90;;;;;;5009175;28;20041;-62
2021/06/09 00:27:55;;;;;;;23.80;16.67;;;18.40;99.90;;;;;;5009587;28;20685;-62
2021/06/09 00:30:24;;;;;;;27.20;16.15;;;18.30;99.90;;;;;;5008295;28;20118;-62
2021/06/09 00:32:51;;;;;;;20.85;16.30;;;18.30;99.90;;;;;;5009248;28;20139;-62
2021/06/09 00:35:17;;;;;;;22.38;16.55;;;18.40;99.90;;;;;;5007519;28;20060;-62
2021/06/09 00:37:44;;;;;;;25.23;17.33;;;18.30;99.90;;;;;;5009433;28;20430;-62
2021/06/09 00:40:12;;;;;;;21.35;16.08;;;18.20;99.90;;;;;;5010601;28;20502;-64
2021/06/09 00:42:39;;;;;;;22.65;15.48;;;18.10;99.90;;;;;;5011387;28;20522;-64
2021/06/09 00:45:08;;;;;;;23.80;17.73;;;18.10;99.90;;;;;;5011052;28;20502;-64
2021/06/09 00:47:35;;;;;;;24.45;18.30;;;18.10;99.90;;;;;;5008912;28;20050;-64
2021/06/09 00:50:01;;;;;;;24.65;18.48;;;18.10;99.90;;;;;;5007921;28;20918;-64
2021/06/09 00:52:29;;;;;;;25.30;18.35;;;18.10;99.90;;;;;;5008766;28;20507;-64
2021/06/09 00:54:56;;;;;;;22.10;17.35;;;18.00;99.90;;;;;;5008979;28;20453;-64
2021/06/09 00:57:25;;;;;;;22.00;15.45;;;18.00;99.90;;;;;;5008422;28;20076;-65
2021/06/09 00:59:52;;;;;;;25.20;16.88;;;18.00;99.90;;;;;;5007379;28;20080;-64
2021/06/09 01:02:21;;;;;;;22.83;17.35;;;18.00;99.90;;;;;;5008740;28;20099;-64
2021/06/09 01:04:48;;;;;;;24.05;17.50;;;17.90;99.90;;;;;;5008684;28;20135;-63
2021/06/09 01:07:16;;;;;;;25.70;17.50;;;17.90;99.90;;;;;;5008731;28;20095;-63
2021/06/09 01:09:42;;;;;;;22.30;15.90;;;17.80;99.90;;;;;;5008122;28;20057;-63
2021/06/09 01:12:10;;;;;;;21.42;15.95;;;17.90;99.90;;;;;;5008556;28;20148;-63
2021/06/09 01:14:37;;;;;;;22.08;16.55;;;17.90;99.90;;;;;;5008689;28;20092;-64
2021/06/09 01:17:04;;;;;;;22.70;16.27;;;17.90;99.90;;;;;;5008402;28;20081;-63
2021/06/09 01:19:30;;;;;;;23.02;16.58;;;17.90;99.90;;;;;;5008172;28;20403;-63
2021/06/09 01:21:58;;;;;;;23.05;15.82;;;18.00;99.90;;;;;;5007280;28;20057;-63
2021/06/09 01:24:25;;;;;;;25.48;16.88;;;17.90;99.90;;;;;;5009606;28;20053;-63
2021/06/09 01:26:52;;;;;;;21.85;16.80;;;17.90;99.90;;;;;;5008332;28;20049;-63
2021/06/09 01:29:18;;;;;;;24.92;17.05;;;17.90;99.90;;;;;;5008050;28;20056;-63
2021/06/09 01:31:45;;;;;;;24.65;15.40;;;17.90;99.90;;;;;;5007350;28;20049;-63
2021/06/09 01:34:12;;;;;;;22.70;16.35;;;17.90;99.90;;;;;;5008875;28;20080;-63
2021/06/09 01:36:40;;;;;;;23.52;16.60;;;17.90;99.90;;;;;;5008003;28;20060;-63
2021/06/09 01:39:11;;;;;;;22.00;16.05;;;17.90;99.90;;;;;;5007752;28;20068;-63
2021/06/09 01:41:42;;;;;;;20.27;16.27;;;17.90;99.90;;;;;;5007047;28;20097;-63
2021/06/09 01:44:09;;;;;;;27.75;16.73;;;17.90;99.90;;;;;;5008141;28;20056;-63
2021/06/09 01:46:36;;;;;;;20.13;15.93;;;17.80;99.90;;;;;;5010310;28;20130;-63
2021/06/09 01:49:05;;;;;;;23.48;16.80;;;18.00;99.90;;;;;;5012310;28;20399;-63
2021/06/09 01:51:32;;;;;;;21.95;16.23;;;17.90;99.90;;;;;;5011444;28;20057;-63
2021/06/09 01:53:58;;;;;;;20.75;16.75;;;17.90;99.90;;;;;;5011254;28;20042;-63
2021/06/09 01:56:26;;;;;;;20.20;16.35;;;17.90;99.90;;;;;;5011274;28;20767;-63
2021/06/09 01:58:52;;;;;;;23.33;17.27;;;17.90;99.90;;;;;;5011572;28;20406;-63
2021/06/09 02:01:20;;;;;;;23.13;16.67;;;17.90;99.90;;;;;;5011758;28;20095;-63
2021/06/09 02:03:47;;;;;;;24.13;18.70;;;17.90;99.90;;;;;;5011392;28;20490;-63
2021/06/09 02:06:14;;;;;;;24.45;17.38;;;17.80;99.90;;;;;;5012179;28;20045;-63
2021/06/09 02:08:41;;;;;;;21.60;16.80;;;17.80;99.90;;;;;;5011593;28;20149;-63
2021/06/09 02:11:07;;;;;;;22.02;16.73;;;17.90;99.90;;;;;;5010647;28;20475;-63
2021/06/09 02:13:36;;;;;;;26.20;16.85;;;17.90;99.90;;;;;;5011911;28;20049;-63
2021/06/09 02:16:02;;;;;;;21.38;16.27;;;17.90;99.90;;;;;;5011716;28;20049;-63
2021/06/09 02:18:29;;;;;;;21.65;16.33;;;18.00;99.90;;;;;;5011731;28;20104;-63
2021/06/09 02:20:58;;;;;;;23.02;17.15;;;18.00;99.90;;;;;;5010906;28;20468;-63
2021/06/09 02:23:28;;;;;;;21.67;17.10;;;18.00;99.90;;;;;;5011164;28;20069;-63
2021/06/09 02:25:57;;;;;;;25.55;16.95;;;18.00;99.90;;;;;;5011599;28;20061;-63
2021/06/09 02:28:25;;;;;;;23.83;17.33;;;18.00;99.90;;;;;;5011277;28;20068;-63
2021/06/09 02:30:53;;;;;;;22.50;16.45;;;18.10;99.90;;;;;;5010475;28;20060;-63
2021/06/09 02:33:21;;;;;;;21.98;16.73;;;18.10;99.90;;;;;;5011280;28;20498;-63
2021/06/09 02:35:49;;;;;;;23.75;15.95;;;18.10;99.90;;;;;;5011474;28;20479;-63
2021/06/09 02:38:17;;;;;;;22.95;16.98;;;18.10;99.90;;;;;;5010928;28;20076;-64
2021/06/09 02:40:46;;;;;;;24.83;18.15;;;18.10;99.90;;;;;;5010184;28;20052;-63
2021/06/09 02:43:13;;;;;;;25.40;17.17;;;18.00;99.90;;;;;;5011040;28;20486;-63
2021/06/09 02:45:39;;;;;;;23.25;17.73;;;18.00;99.90;;;;;;5011126;28;20053;-63
2021/06/09 02:48:11;;;;;;;26.77;16.98;;;18.00;99.90;;;;;;5011057;28;20065;-63
2021/06/09 02:50:38;;;;;;;21.02;16.52;;;18.00;99.90;;;;;;5010122;28;20107;-63
2021/06/09 02:53:10;;;;;;;26.33;18.10;;;17.90;99.90;;;;;;5010801;28;20088;-63
2021/06/09 02:55:48;;;;;;;23.30;16.70;;;18.00;99.90;;;;;;5011188;28;20081;-63
2021/06/09 02:58:22;;;;;;;25.52;17.92;;;17.90;99.90;;;;;;5009537;28;20045;-63
2021/06/09 03:00:55;;;;;;;22.45;16.48;;;18.00;99.90;;;;;;5010303;28;20092;-63
2021/06/09 03:03:32;;;;;;;26.65;17.58;;;18.00;99.90;;;;;;5011041;28;20395;-64
2021/06/09 03:06:03;;;;;;;24.27;17.95;;;18.10;99.90;;;;;;5010404;28;20041;-64
2021/06/09 03:08:35;;;;;;;22.58;17.58;;;18.10;99.90;;;;;;5010447;28;20089;-64
2021/06/09 03:11:05;;;;;;;27.45;18.15;;;18.10;99.90;;;;;;5010338;28;20077;-64
2021/06/09 03:13:53;;;;;;;25.38;17.77;;;18.20;99.90;;;;;;5010544;28;20055;-64
2021/06/09 03:16:25;;;;;;;21.45;16.98;;;18.30;99.90;;;;;;5010791;28;20053;-64
2021/06/09 03:18:54;;;;;;;27.13;17.60;;;18.30;99.90;;;;;;5009857;28;20151;-64
2021/06/09 03:21:25;;;;;;;23.02;17.10;;;18.20;99.90;;;;;;5009346;28;21059;-64
2021/06/09 03:24:04;;;;;;;23.05;16.50;;;18.30;99.90;;;;;;5009758;28;20061;-64
2021/06/09 03:26:40;;;;;;;25.23;17.45;;;18.30;99.90;;;;;;5010598;28;21196;-65
2021/06/09 03:29:12;;;;;;;23.42;17.92;;;18.20;99.90;;;;;;5010534;28;20081;-64
2021/06/09 03:31:43;;;;;;;23.45;15.90;;;18.20;99.90;;;;;;5008612;28;20062;-64
2021/06/09 03:34:18;;;;;;;23.77;17.52;;;18.30;99.90;;;;;;5009894;28;20510;-64
2021/06/09 03:36:45;;;;;;;26.20;18.38;;;18.30;99.90;;;;;;5010699;28;20045;-63
2021/06/09 03:39:15;;;;;;;21.73;16.67;;;18.30;99.90;;;;;;5010362;28;21606;-64
2021/06/09 03:41:46;;;;;;;23.60;17.02;;;18.30;99.90;;;;;;5009348;28;20488;-64
2021/06/09 03:44:16;;;;;;;23.33;17.02;;;18.30;99.90;;;;;;5010235;28;20085;-64
2021/06/09 03:46:44;;;;;;;23.15;16.45;;;18.30;99.90;;;;;;5009330;28;20562;-64
2021/06/09 03:49:15;;;;;;;22.80;17.50;;;18.30;99.90;;;;;;5009858;28;20456;-64
2021/06/09 03:51:42;;;;;;;23.40;17.00;;;18.30;99.90;;;;;;5009311;28;20133;-64
2021/06/09 03:54:11;;;;;;;25.98;18.45;;;18.30;99.90;;;;;;5010265;28;21045;-63
2021/06/09 03:56:41;;;;;;;25.02;17.15;;;18.30;99.90;;;;;;5010247;28;20403;-64
2021/06/09 03:59:09;;;;;;;30.27;21.50;;;18.40;99.90;;;;;;5010141;28;20111;-63
2021/06/09 04:01:40;;;;;;;45.13;25.67;;;18.40;99.90;;;;;;5008892;28;20128;-64
2021/06/09 04:04:10;;;;;;;47.25;27.90;;;18.30;99.90;;;;;;5009658;28;20418;-65
2021/06/09 04:06:42;;;;;;;45.92;30.80;;;18.10;99.90;;;;;;5008920;28;20057;-65
2021/06/09 04:09:12;;;;;;;50.33;29.15;;;17.90;99.90;;;;;;5009660;28;20525;-66
2021/06/09 04:11:42;;;;;;;51.33;27.67;;;17.70;99.90;;;;;;5008262;28;20414;-66
2021/06/09 04:14:11;;;;;;;47.28;28.40;;;17.60;99.90;;;;;;5009561;28;20049;-66
2021/06/09 04:16:39;;;;;;;57.10;33.65;;;17.50;99.90;;;;;;5008964;28;20096;-66
2021/06/09 04:19:07;;;;;;;59.17;35.15;;;17.30;99.90;;;;;;5009968;28;20560;-66
2021/06/09 04:21:34;;;;;;;73.03;39.28;;;17.20;99.90;;;;;;5010668;28;20288;-65
2021/06/09 04:24:02;;;;;;;72.85;40.58;;;17.20;99.90;;;;;;5010918;28;20080;-66
2021/06/09 04:26:29;;;;;;;75.05;39.10;;;17.20;99.90;;;;;;5008833;28;21199;-67
2021/06/09 04:28:57;;;;;;;74.97;34.97;;;17.30;99.90;;;;;;5009214;28;20103;-66
2021/06/09 04:31:24;;;;;;;89.82;40.95;;;17.20;99.90;;;;;;5008330;28;20123;-66
2021/06/09 04:33:55;;;;;;;96.07;43.80;;;17.00;99.90;;;;;;5008791;28;20053;-66
2021/06/09 04:36:22;;;;;;;72.35;39.35;;;17.00;99.90;;;;;;5009075;28;20041;-66
2021/06/09 04:38:48;;;;;;;68.53;38.72;;;17.00;99.90;;;;;;5007846;28;20054;-67
2021/06/09 04:41:16;;;;;;;64.88;37.85;;;16.90;99.90;;;;;;5008108;28;20049;-67
2021/06/09 04:43:43;;;;;;;64.10;37.63;;;16.90;99.90;;;;;;5008863;28;20433;-67
2021/06/09 04:46:09;;;;;;;67.38;39.13;;;16.90;99.90;;;;;;5008865;28;20089;-67
2021/06/09 04:48:36;;;;;;;92.28;43.05;;;16.90;99.90;;;;;;5008076;28;20049;-67
2021/06/09 04:51:03;;;;;;;79.38;43.10;;;17.00;99.90;;;;;;5007614;28;20140;-66
2021/06/09 04:53:29;;;;;;;59.17;36.17;;;17.00;99.90;;;;;;5007890;28;20051;-66
2021/06/09 04:55:56;;;;;;;55.45;35.83;;;17.00;99.90;;;;;;5009207;28;20107;-66
2021/06/09 04:58:26;;;;;;;65.35;36.92;;;17.00;99.90;;;;;;5009217;28;20107;-66
2021/06/09 05:00:53;;;;;;;69.85;38.28;;;17.10;99.90;;;;;;5007985;28;20681;-66
2021/06/09 05:03:20;;;;;;;69.25;39.33;;;17.10;99.90;;;;;;5008993;28;20041;-66
2021/06/09 05:05:49;;;;;;;62.03;37.60;;;17.10;99.90;;;;;;5008165;28;20053;-66
2021/06/09 05:08:16;;;;;;;63.28;37.38;;;17.10;99.90;;;;;;5007764;28;20056;-66
2021/06/09 05:10:43;;;;;;;70.90;37.88;;;17.00;99.90;;;;;;5008427;28;20053;-66
2021/06/09 05:13:16;;;;;;;65.78;40.78;;;17.00;99.90;;;;;;5008726;28;20120;-67
2021/06/09 05:15:50;;;;;;;68.28;40.63;;;17.00;99.90;;;;;;5008370;28;20088;-66
2021/06/09 05:18:21;;;;;;;67.45;40.20;;;17.10;99.90;;;;;;5008483;28;20268;-66
2021/06/09 05:20:50;;;;;;;71.30;42.03;;;17.10;99.90;;;;;;5006961;28;20561;-66
2021/06/09 05:23:19;;;;;;;65.43;41.42;;;17.10;99.90;;;;;;5008259;28;20048;-66
2021/06/09 05:25:49;;;;;;;73.35;43.40;;;17.10;99.90;;;;;;5009069;28;20446;-66
2021/06/09 05:28:18;;;;;;;70.35;42.40;;;17.10;99.90;;;;;;5008580;28;20052;-68
2021/06/09 05:30:47;;;;;;;71.18;44.28;;;17.10;99.90;;;;;;5007363;28;20049;-66
2021/06/09 05:33:15;;;;;;;78.90;46.03;;;17.10;99.90;;;;;;5007608;28;20057;-67
2021/06/09 05:35:42;;;;;;;77.93;45.35;;;17.20;99.90;;;;;;5007997;28;20497;-67
2021/06/09 05:38:09;;;;;;;67.72;42.50;;;17.20;99.90;;;;;;5008571;28;20072;-67
2021/06/09 05:40:36;;;;;;;83.25;46.28;;;17.20;99.90;;;;;;5007322;28;20050;-67
2021/06/09 05:43:02;;;;;;;72.20;44.97;;;17.20;99.90;;;;;;5008570;28;20049;-66
2021/06/09 05:45:30;;;;;;;69.47;43.47;;;17.20;99.90;;;;;;5007727;28;20049;-69
2021/06/09 05:47:59;;;;;;;74.40;44.55;;;17.20;99.90;;;;;;5007432;28;20493;-67
2021/06/09 05:50:28;;;;;;;63.80;43.13;;;17.10;99.90;;;;;;5006771;28;20089;-67
2021/06/09 05:52:57;;;;;;;83.07;48.15;;;17.10;99.90;;;;;;5008260;28;20634;-68
2021/06/09 05:55:25;;;;;;;74.70;45.10;;;17.10;99.90;;;;;;5008378;28;20041;-68
2021/06/09 05:57:53;;;;;;;76.57;46.20;;;17.10;99.90;;;;;;5007519;28;20486;-68
2021/06/09 06:00:22;;;;;;;89.60;49.05;;;17.00;99.90;;;;;;5006305;28;20083;-68
2021/06/09 06:02:49;;;;;;;95.55;52.08;;;17.10;99.90;;;;;;5007890;28;20054;-66
2021/06/09 06:05:17;;;;;;;86.53;50.03;;;17.10;99.90;;;;;;5008044;28;20143;-67
2021/06/09 06:07:44;;;;;;;94.50;52.00;;;17.10;99.90;;;;;;5006042;28;20437;-67
2021/06/09 06:10:12;;;;;;;100.63;53.85;;;17.30;99.90;;;;;;5006691;28;20081;-67
2021/06/09 06:12:41;;;;;;;80.40;49.00;;;17.30;99.90;;;;;;5007420;28;20131;-67
2021/06/09 06:15:11;;;;;;;89.68;50.08;;;17.40;99.90;;;;;;5007316;28;20046;-67
2021/06/09 06:17:39;;;;;;;101.72;52.20;;;17.40;99.90;;;;;;5006439;28;20422;-67
2021/06/09 06:20:12;;;;;;;110.47;55.35;;;17.40;99.90;;;;;;5010167;28;20052;-67
2021/06/09 06:22:40;;;;;;;53.97;35.70;;;17.50;99.90;;;;;;5010596;28;20053;-67
2021/06/09 06:25:08;;;;;;;58.92;38.40;;;17.50;99.90;;;;;;5010510;28;20127;-67
2021/06/09 06:27:35;;;;;;;60.72;38.08;;;17.50;99.90;;;;;;5010307;28;20733;-67
2021/06/09 06:30:04;;;;;;;47.63;31.75;;;17.60;99.90;;;;;;5010076;28;20057;-67
2021/06/09 06:32:32;;;;;;;54.60;36.47;;;17.70;99.90;;;;;;5011168;28;20089;-67
2021/06/09 06:35:00;;;;;;;52.88;35.72;;;17.70;99.90;;;;;;5012507;28;20045;-67
2021/06/09 06:37:29;;;;;;;57.35;37.70;;;17.80;99.90;;;;;;5011685;28;20143;-67
2021/06/09 06:39:57;;;;;;;51.15;36.55;;;17.90;99.90;;;;;;5011141;28;20820;-67
2021/06/09 06:42:24;;;;;;;55.63;38.00;;;18.00;99.90;;;;;;5011290;28;20045;-67
2021/06/09 06:44:51;;;;;;;45.53;34.00;;;18.10;99.90;;;;;;5010926;28;20672;-67
2021/06/09 06:47:19;;;;;;;35.03;26.85;;;18.10;99.90;;;;;;5012456;28;20486;-67
2021/06/09 06:49:47;;;;;;;44.55;31.25;;;18.00;99.90;;;;;;5011364;28;20552;-67
2021/06/09 06:52:14;;;;;;;35.45;25.90;;;18.10;99.90;;;;;;5011907;28;20489;-67
2021/06/09 06:54:40;;;;;;;34.45;25.17;;;18.00;99.90;;;;;;5013356;28;20049;-67
2021/06/09 06:57:09;;;;;;;42.70;29.17;;;17.90;99.90;;;;;;5013954;28;20936;-67
2021/06/09 06:59:37;;;;;;;39.22;28.75;;;18.00;99.90;;;;;;5013723;28;20049;-66
2021/06/09 07:02:06;;;;;;;31.08;24.67;;;18.00;99.90;;;;;;5010863;28;20050;-66
2021/06/09 07:04:32;;;;;;;33.33;25.55;;;17.90;99.90;;;;;;5009769;28;20099;-66
2021/06/09 07:06:59;;;;;;;26.92;21.08;;;17.90;99.90;;;;;;5009618;28;20049;-66
2021/06/09 07:09:26;;;;;;;26.70;20.58;;;17.90;99.90;;;;;;5012548;28;20049;-66
2021/06/09 07:11:53;;;;;;;25.02;20.42;;;17.80;99.90;;;;;;5011724;28;20557;-68
2021/06/09 07:14:24;;;;;;;27.83;20.35;;;17.80;99.90;;;;;;5013543;28;20045;-68
2021/06/09 07:16:51;;;;;;;24.73;18.95;;;17.70;99.90;;;;;;5012584;28;20088;-67
2021/06/09 07:19:18;;;;;;;25.10;18.63;;;17.70;99.90;;;;;;5012245;28;20387;-68
2021/06/09 07:21:45;;;;;;;24.85;18.48;;;17.80;99.90;;;;;;5010817;28;20061;-66
2021/06/09 07:24:12;;;;;;;21.98;17.30;;;17.80;99.90;;;;;;5013247;28;20049;-68
2021/06/09 07:26:43;;;;;;;20.17;15.18;;;17.80;99.90;;;;;;5012983;28;20772;-67
2021/06/09 07:29:10;;;;;;;17.15;13.13;;;17.70;99.90;;;;;;5012412;28;20061;-67
2021/06/09 07:31:40;;;;;;;17.23;12.88;;;17.70;99.90;;;;;;5011766;28;20049;-66
2021/06/09 07:34:07;;;;;;;18.70;13.50;;;17.60;99.90;;;;;;5011012;28;20505;-66
2021/06/09 07:36:40;;;;;;;16.40;12.75;;;17.50;99.90;;;;;;5010095;28;20135;-67
2021/06/09 07:39:11;;;;;;;17.48;12.30;;;17.50;99.90;;;;;;5009601;28;20053;-67
2021/06/09 07:41:41;;;;;;;18.40;13.15;;;17.50;99.90;;;;;;5011091;28;20076;-66
2021/06/09 07:44:09;;;;;;;18.45;14.55;;;17.60;99.90;;;;;;5010841;28;20049;-66
2021/06/09 07:46:39;;;;;;;19.38;14.65;;;17.60;99.90;;;;;;5010917;28;20761;-66
2021/06/09 07:49:10;;;;;;;15.63;12.63;;;17.70;99.90;;;;;;5010467;28;20045;-67
2021/06/09 07:51:37;;;;;;;16.52;13.90;;;17.70;99.90;;;;;;5009625;28;20089;-67
2021/06/09 07:54:06;;;;;;;15.80;12.68;;;17.80;99.90;;;;;;5012535;28;20095;-67
2021/06/09 07:56:35;;;;;;;20.08;13.32;;;17.80;99.90;;;;;;5012695;28;20510;-67
2021/06/09 07:59:04;;;;;;;15.63;12.32;;;17.90;99.90;;;;;;5011911;28;20052;-66
2021/06/09 08:01:31;;;;;;;18.33;14.35;;;18.00;99.90;;;;;;5010178;28;20207;-65
2021/06/09 08:03:59;;;;;;;17.20;12.88;;;18.00;99.90;;;;;;5010328;28;20076;-65
2021/06/09 08:06:26;;;;;;;20.65;15.48;;;18.10;99.90;;;;;;5008660;28;20088;-65
2021/06/09 08:08:53;;;;;;;19.88;14.95;;;18.20;99.90;;;;;;5009127;28;20464;-65
2021/06/09 08:11:21;;;;;;;14.63;11.55;;;18.30;99.90;;;;;;5009621;28;20430;-65
2021/06/09 08:13:48;;;;;;;18.77;13.70;;;18.30;99.90;;;;;;5009118;28;20502;-65
2021/06/09 08:16:16;;;;;;;16.38;12.85;;;18.30;99.90;;;;;;5009380;28;20049;-64
2021/06/09 08:18:43;;;;;;;18.63;14.32;;;18.30;99.90;;;;;;5009827;28;20526;-64
2021/06/09 08:21:13;;;;;;;18.17;14.20;;;18.30;99.90;;;;;;5010209;28;20049;-65
2021/06/09 08:23:41;;;;;;;15.02;12.65;;;18.30;99.90;;;;;;5009536;28;20537;-65
2021/06/09 08:26:09;;;;;;;15.38;12.23;;;18.40;99.90;;;;;;5009775;28;20445;-65
2021/06/09 08:28:36;;;;;;;16.73;13.38;;;18.40;99.90;;;;;;5009025;28;20084;-65
2021/06/09 08:31:04;;;;;;;14.23;11.93;;;18.40;99.90;;;;;;5010464;28;20135;-65
2021/06/09 08:33:30;;;;;;;16.13;12.52;;;18.40;99.90;;;;;;5010490;28;20057;-65
2021/06/09 08:35:57;;;;;;;16.35;13.15;;;18.40;99.90;;;;;;5009158;28;20086;-65
2021/06/09 08:38:25;;;;;;;18.55;14.60;;;18.60;99.90;;;;;;5008102;28;20128;-65
2021/06/09 08:40:51;;;;;;;18.60;14.70;;;18.70;99.90;;;;;;5008489;28;20068;-65
2021/06/09 08:43:20;;;;;;;19.80;14.25;;;18.90;99.90;;;;;;5009129;28;20071;-65
2021/06/09 08:45:48;;;;;;;13.10;8.90;;;18.90;99.90;;;;;;5009126;28;20064;-65
2021/06/09 08:48:14;;;;;;;21.52;6.90;;;18.90;99.90;;;;;;5008726;28;20406;-65
2021/06/09 08:50:42;;;;;;;12.35;7.32;;;18.90;99.90;;;;;;5008371;28;20092;-65
2021/06/09 08:53:10;;;;;;;12.88;7.63;;;19.10;99.90;;;;;;5009046;28;20081;-65
2021/06/09 08:55:38;;;;;;;12.23;8.75;;;19.40;99.90;;;;;;5007747;28;20060;-65
2021/06/09 08:58:06;;;;;;;11.95;8.52;;;19.60;99.90;;;;;;5008751;28;20053;-65
2021/06/09 09:00:34;;;;;;;13.40;10.27;;;19.90;99.90;;;;;;5007554;28;20521;-65
2021/06/09 09:03:01;;;;;;;14.93;9.90;;;20.20;99.90;;;;;;5008879;28;20068;-63
2021/06/09 09:05:28;;;;;;;12.90;10.02;;;20.60;99.90;;;;;;5008772;28;20053;-65
2021/06/09 09:07:57;;;;;;;14.43;10.10;;;20.90;99.90;;;;;;5008239;28;20077;-65
2021/06/09 09:10:24;;;;;;;15.43;11.05;;;21.00;99.90;;;;;;5007796;28;20813;-65
2021/06/09 09:12:52;;;;;;;15.60;9.68;;;21.10;99.90;;;;;;5008275;28;20068;-63
2021/06/09 09:15:20;;;;;;;11.23;9.20;;;21.00;99.90;;;;;;5008851;28;20513;-63
2021/06/09 09:17:53;;;;;;;11.32;8.30;;;21.20;99.90;;;;;;5009241;28;20049;-63
2021/06/09 09:20:27;;;;;;;10.32;7.65;;;21.40;99.90;;;;;;5007703;28;20041;-63
2021/06/09 09:22:57;;;;;;;8.77;6.63;;;21.70;99.90;;;;;;5008995;28;20045;-63
2021/06/09 09:25:26;;;;;;;8.93;6.35;;;21.70;99.90;;;;;;5008820;28;20402;-63
2021/06/09 09:28:00;;;;;;;9.85;5.80;;;21.80;99.90;;;;;;5008093;28;20049;-63
2021/06/09 09:30:29;;;;;;;11.00;5.88;;;22.10;99.90;;;;;;5007198;28;20429;-65
2021/06/09 09:32:58;;;;;;;7.15;5.20;;;22.50;99.90;;;;;;5008388;28;20502;-63
2021/06/09 09:35:28;;;;;;;9.43;4.75;;;23.30;99.90;;;;;;5008160;28;20279;-65
2021/06/09 09:38:10;;;;;;;7.05;4.70;;;24.00;99.90;;;;;;5008218;28;21206;-65
2021/06/09 09:40:38;;;;;;;6.05;4.10;;;24.90;99.90;;;;;;5006908;28;20057;-66
2021/06/09 09:43:06;;;;;;;5.78;4.22;;;25.50;99.90;;;;;;5008279;28;20494;-65
2021/06/09 09:45:34;;;;;;;6.85;4.47;;;25.20;99.90;;;;;;5007760;28;20143;-65
2021/06/09 09:48:16;;;;;;;6.32;4.30;;;25.60;99.90;;;;;;5007831;28;20774;-66
2021/06/09 09:50:45;;;;;;;7.65;4.03;;;26.70;99.90;;;;;;5007093;28;20119;-66
2021/06/09 09:53:19;;;;;;;6.93;4.03;;;27.50;99.90;;;;;;5010765;28;20058;-66
2021/06/09 09:56:00;;;;;;;6.25;3.97;;;28.40;99.90;;;;;;5007559;28;20088;-65
2021/06/09 09:58:30;;;;;;;8.65;4.07;;;29.10;99.90;;;;;;5008153;28;20041;-65
2021/06/09 10:01:12;;;;;;;6.93;4.50;;;29.20;99.90;;;;;;5006967;28;20211;-66
2021/06/09 10:03:39;;;;;;;6.28;3.88;;;29.70;99.90;;;;;;5007907;28;20490;-65
2021/06/09 10:06:27;;;;;;;6.97;4.38;;;30.30;99.90;;;;;;5007683;28;20041;-66
2021/06/09 10:08:55;;;;;;;6.88;4.13;;;30.60;99.90;;;;;;5011988;28;20525;-66
2021/06/09 10:11:23;;;;;;;6.22;4.25;;;30.10;99.90;;;;;;5010610;28;20049;-66
2021/06/09 10:13:51;;;;;;;5.88;3.60;;;30.30;99.90;;;;;;5012115;28;20053;-66
2021/06/09 10:16:23;;;;;;;4.88;3.60;;;30.00;99.90;;;;;;5011568;28;20599;-65
2021/06/09 10:18:57;;;;;;;6.75;2.92;;;29.40;99.90;;;;;;5011625;28;20089;-65
2021/06/09 10:21:24;;;;;;;6.75;3.65;;;29.90;99.90;;;;;;5010789;28;20087;-66
2021/06/09 10:23:50;;;;;;;6.50;3.90;;;30.10;99.90;;;;;;5011926;28;20276;-65
2021/06/09 10:26:18;;;;;;;4.60;3.22;;;30.10;99.90;;;;;;5012234;28;20049;-66
2021/06/09 10:29:07;;;;;;;5.88;3.45;;;29.80;99.90;;;;;;5010810;28;20049;-65
2021/06/09 10:31:36;;;;;;;5.60;3.33;;;30.40;99.90;;;;;;5010772;28;20056;-65
2021/06/09 10:34:04;;;;;;;4.95;2.95;;;30.50;99.90;;;;;;5012638;28;20517;-65
2021/06/09 10:36:34;;;;;;;3.67;2.90;;;30.60;99.90;;;;;;5013501;28;20061;-65
2021/06/09 10:39:01;;;;;;;5.38;3.20;;;31.00;99.90;;;;;;5012627;28;20114;-65
2021/06/09 10:41:29;;;;;;;3.95;2.70;;;31.30;99.90;;;;;;5010054;28;20107;-65
2021/06/09 10:43:57;;;;;;;4.13;2.90;;;30.70;99.90;;;;;;5010434;28;20049;-65
2021/06/09 10:46:27;;;;;;;3.67;2.55;;;30.50;99.90;;;;;;5010999;28;20053;-66
2021/06/09 10:49:00;;;;;;;5.25;3.00;;;30.80;99.90;;;;;;5011813;28;20049;-65
2021/06/09 10:51:27;;;;;;;5.80;2.70;;;31.40;99.90;;;;;;5011339;28;20056;-66
2021/06/09 10:53:55;;;;;;;4.60;2.92;;;31.60;99.90;;;;;;5011498;28;20050;-66
2021/06/09 10:56:23;;;;;;;8.55;3.50;;;31.80;99.90;;;;;;5014819;28;20053;-66
2021/06/09 10:58:50;;;;;;;7.03;3.53;;;31.00;99.90;;;;;;5012117;28;20395;-65
2021/06/09 11:01:21;;;;;;;5.25;3.40;;;30.70;99.90;;;;;;5012636;28;20284;-66
2021/06/09 11:03:50;;;;;;;5.25;3.30;;;30.50;99.90;;;;;;5012343;28;20054;-65
2021/06/09 11:06:16;;;;;;;4.53;3.42;;;30.50;99.90;;;;;;5014146;28;20103;-65
2021/06/09 11:08:43;;;;;;;4.68;3.08;;;29.80;99.90;;;;;;5009012;28;20099;-65
2021/06/09 11:11:21;;;;;;;5.88;4.07;;;29.80;99.90;;;;;;5006908;28;20053;-65
2021/06/09 11:13:48;;;;;;;4.90;3.30;;;29.20;99.90;;;;;;5008909;28;20085;-65
2021/06/09 11:16:17;;;;;;;4.65;3.30;;;29.00;99.90;;;;;;5008981;28;20052;-65
2021/06/09 11:18:46;;;;;;;5.30;3.53;;;28.70;99.90;;;;;;5008452;28;20625;-65
2021/06/09 11:21:16;;;;;;;6.00;3.40;;;28.90;99.90;;;;;;5009563;28;20076;-65
2021/06/09 11:23:45;;;;;;;7.40;3.17;;;28.90;99.90;;;;;;5012599;28;20434;-65
2021/06/09 11:26:25;;;;;;;4.22;2.97;;;30.10;99.90;;;;;;5014938;28;20387;-65
2021/06/09 11:28:52;;;;;;;4.38;3.08;;;30.80;99.90;;;;;;5014335;28;20755;-65
2021/06/09 11:31:23;;;;;;;3.80;2.50;;;31.20;99.90;;;;;;5012407;28;20041;-65
2021/06/09 11:33:59;;;;;;;3.67;2.90;;;31.30;99.90;;;;;;5011587;28;20826;-65
2021/06/09 11:36:43;;;;;;;4.05;2.67;;;32.30;99.90;;;;;;5013053;28;20422;-65
2021/06/09 11:39:25;;;;;;;5.30;3.17;;;32.50;99.90;;;;;;5014594;28;20103;-65
2021/06/09 11:41:53;;;;;;;5.32;3.20;;;31.40;99.90;;;;;;5011317;28;20085;-65
2021/06/09 11:44:28;;;;;;;5.18;3.20;;;30.80;99.90;;;;;;5013091;28;20529;-65
2021/06/09 11:47:17;;;;;;;4.82;3.20;;;30.40;99.90;;;;;;5012480;28;20464;-65
2021/06/09 11:49:43;;;;;;;3.95;2.80;;;31.20;99.90;;;;;;5011954;28;20510;-65
2021/06/09 11:52:11;;;;;;;4.03;3.05;;;31.40;99.90;;;;;;5012806;28;20054;-64
2021/06/09 11:54:38;;;;;;;4.80;3.38;;;30.80;99.90;;;;;;5013482;28;20136;-65
2021/06/09 11:57:13;;;;;;;5.00;3.60;;;30.00;99.90;;;;;;5011967;28;20126;-65
2021/06/09 11:59:41;;;;;;;6.32;3.67;;;31.10;99.90;;;;;;5013052;28;20422;-65
2021/06/09 12:02:10;;;;;;;4.43;3.10;;;30.80;99.90;;;;;;5013926;28;20053;-64
2021/06/09 12:04:38;;;;;;;4.90;2.90;;;31.20;99.90;;;;;;5013087;28;20084;-65
2021/06/09 12:07:07;;;;;;;5.43;3.13;;;31.80;99.90;;;;;;5011063;28;20041;-65
2021/06/09 12:09:37;;;;;;;4.32;2.97;;;31.80;99.90;;;;;;5011313;28;20084;-65
2021/06/09 12:12:09;;;;;;;4.22;3.05;;;31.80;99.90;;;;;;5010966;28;20486;-64
2021/06/09 12:14:37;;;;;;;4.45;3.25;;;32.60;99.90;;;;;;5013484;28;20049;-64
2021/06/09 12:17:25;;;;;;;4.40;3.40;;;32.80;98.70;;;;;;5013641;28;20049;-66
2021/06/09 12:19:57;;;;;;;4.80;3.30;;;32.00;97.20;;;;;;5004286;28;20057;-64
2021/06/09 12:22:26;;;;;;;4.28;3.05;;;32.20;97.10;;;;;;5011145;28;20221;-66
2021/06/09 12:25:03;;;;;;;4.50;3.05;;;32.10;96.80;;;;;;5011226;28;20103;-66
2021/06/09 12:27:31;;;;;;;7.50;4.20;;;32.60;95.50;;;;;;5010813;28;20076;-66
2021/06/09 12:29:58;;;;;;;4.88;3.50;;;33.20;99.40;;;;;;5010315;28;20746;-64
2021/06/09 12:32:27;;;;;;;5.57;4.10;;;33.40;99.90;;;;;;5012273;28;20099;-64
2021/06/09 12:34:57;;;;;;;6.30;4.03;;;33.20;97.50;;;;;;5010519;28;20053;-65
2021/06/09 12:37:25;;;;;;;5.20;3.78;;;33.20;99.40;;;;;;5012453;28;20041;-65
2021/06/09 12:39:57;;;;;;;5.22;3.72;;;32.60;98.20;;;;;;5007199;28;20065;-66
2021/06/09 12:42:26;;;;;;;5.25;3.60;;;32.90;98.30;;;;;;5009212;28;20041;-65